Time;durP1;ratioP1;P1;durP2;ratioP2;P2;SDS_P1;SDS_P2;PMS_P1;PMS_P2;Temp;Humidity;BMP_temperature;BMP_pressure;BME280_temperature;BME280_humidity;BME280_pressure;Samples;Min_cycle;Max_cycle;Signal;HPM_P1;HPM_P2
2022/08/01 00:01:30;;;;;;;3.08;1.50;;;;;;;21.63;52.19;94040.13;5010927;28;20598;-70
2022/08/01 00:04:14;;;;;;;1.50;1.40;;;;;;;21.69;52.14;94042.44;5008109;28;20208;-70
2022/08/01 00:06:58;;;;;;;1.52;1.42;;;;;;;21.82;51.60;94054.97;5008178;28;20210;-70
2022/08/01 00:09:42;;;;;;;3.75;1.92;;;;;;;21.67;52.53;94050.94;5009139;28;20286;-70
2022/08/01 00:12:26;;;;;;;2.33;1.60;;;;;;;21.59;52.34;94051.41;5000832;28;20189;-65
2022/08/01 00:15:14;;;;;;;3.00;1.47;;;;;;;21.68;51.72;94058.81;5010622;28;20258;-71
2022/08/01 00:17:58;;;;;;;2.35;1.70;;;;;;;21.69;52.26;94053.84;5004265;28;20592;-60
2022/08/01 00:20:42;;;;;;;3.60;1.80;;;;;;;21.79;51.51;94057.75;5011296;28;20316;-70
2022/08/01 00:23:26;;;;;;;2.45;1.50;;;;;;;21.91;51.22;94060.25;5009617;28;20204;-70
2022/08/01 00:26:12;;;;;;;1.45;1.35;;;;;;;21.71;51.66;94059.63;5012776;28;20652;-70
2022/08/01 00:28:56;;;;;;;5.53;1.40;;;;;;;21.84;51.66;94060.75;5011145;28;20224;-60
2022/08/01 00:31:40;;;;;;;2.67;1.58;;;;;;;21.91;51.17;94060.25;5010657;28;20231;-70
2022/08/01 00:34:25;;;;;;;1.97;1.43;;;;;;;21.73;52.17;94059.69;4996967;28;20234;-69
2022/08/01 00:37:09;;;;;;;1.38;1.27;;;;;;;21.79;51.79;94062.72;5000497;28;20200;-63
2022/08/01 00:39:53;;;;;;;1.35;1.25;;;;;;;21.72;52.67;94063.94;5006501;28;20207;-71
2022/08/01 00:42:37;;;;;;;3.63;1.48;;;;;;;21.89;52.08;94065.19;5004483;28;20200;-70
2022/08/01 00:45:22;;;;;;;3.42;1.75;;;;;;;21.66;52.85;94060.91;4999585;28;20231;-69
2022/08/01 00:48:06;;;;;;;3.58;1.60;;;;;;;21.68;52.88;94070.25;5002199;28;20330;-70
2022/08/01 00:50:50;;;;;;;2.78;1.75;;;;;;;21.54;53.46;94063.38;4999552;28;20253;-71
2022/08/01 00:53:34;;;;;;;2.70;1.88;;;;;;;21.55;53.50;94059.09;5001246;28;20665;-70
2022/08/01 00:56:20;;;;;;;4.95;2.25;;;;;;;21.34;54.31;94061.31;5009479;28;20262;-70
2022/08/01 00:59:05;;;;;;;2.28;1.48;;;;;;;21.20;54.75;94066.53;5005428;28;20635;-71
2022/08/01 01:01:49;;;;;;;4.05;1.88;;;;;;;21.18;54.76;94060.75;5005526;28;20207;-71
2022/08/01 01:04:33;;;;;;;2.00;1.70;;;;;;;21.16;55.04;94062.81;5010199;28;20225;-70
2022/08/01 01:07:32;;;;;;;5.80;1.55;;;;;;;21.15;55.21;94061.31;5000667;28;20640;-71
2022/08/01 01:10:25;;;;;;;3.72;1.65;;;;;;;21.10;55.86;94066.16;5009900;28;20687;-63
2022/08/01 01:13:15;;;;;;;1.75;1.52;;;;;;;21.22;55.33;94072.28;5006053;28;20203;-71
2022/08/01 01:16:06;;;;;;;2.97;1.80;;;;;;;21.20;55.58;94069.38;4993591;28;20225;-70
2022/08/01 01:18:54;;;;;;;2.20;1.50;;;;;;;21.08;55.60;94074.63;5005817;28;20228;-71
2022/08/01 01:22:17;;;;;;;1.80;1.70;;;;;;;20.83;57.36;94066.63;5007247;28;20672;-71
2022/08/01 01:25:09;;;;;;;2.10;1.80;;;;;;;20.93;56.80;94075.50;4983912;28;20223;-71
2022/08/01 01:28:26;;;;;;;2.60;1.50;;;;;;;20.95;56.52;94072.75;4999159;28;20311;-70
2022/08/01 01:31:13;;;;;;;2.08;1.80;;;;;;;20.96;56.58;94074.22;5006438;28;20874;-71
2022/08/01 01:33:59;;;;;;;1.65;1.55;;;;;;;20.97;56.94;94072.81;5004303;28;20196;-71
2022/08/01 01:36:45;;;;;;;2.00;1.63;;;;;;;20.99;57.06;94072.88;5004996;28;20210;-71
2022/08/01 01:39:32;;;;;;;1.52;1.40;;;;;;;21.03;56.43;94081.56;5006251;28;20203;-71
2022/08/01 01:42:17;;;;;;;3.13;1.55;;;;;;;20.98;56.54;94077.84;5006881;28;20685;-71
2022/08/01 01:45:04;;;;;;;2.88;1.60;;;;;;;20.86;57.11;94076.72;5003655;28;20211;-71
2022/08/01 01:47:49;;;;;;;1.95;1.52;;;;;;;20.84;57.28;94068.09;5005691;28;20254;-71
2022/08/01 01:50:35;;;;;;;3.50;1.70;;;;;;;20.74;57.82;94076.28;5002307;28;20695;-71
2022/08/01 01:53:22;;;;;;;7.20;1.63;;;;;;;20.56;59.03;94067.78;5009062;28;20203;-71
2022/08/01 01:56:09;;;;;;;5.00;1.90;;;;;;;20.52;58.45;94071.22;5003662;28;20199;-70
2022/08/01 01:58:59;;;;;;;2.63;1.70;;;;;;;20.32;60.12;94067.63;5001527;28;20311;-71
2022/08/01 02:01:44;;;;;;;4.00;1.90;;;;;;;20.36;59.05;94067.78;4998595;28;20655;-71
2022/08/01 02:04:32;;;;;;;2.13;1.97;;;;;;;20.34;59.64;94076.25;5001923;28;20207;-70
2022/08/01 02:07:24;;;;;;;3.97;1.67;;;;;;;20.31;58.71;94077.50;5005004;28;20229;-70
2022/08/01 02:10:10;;;;;;;3.10;1.90;;;;;;;20.31;58.87;94077.50;5008343;28;20203;-70
2022/08/01 02:12:57;;;;;;;2.50;1.53;;;;;;;20.35;57.94;94086.25;4993754;28;20199;-70
2022/08/01 02:15:41;;;;;;;2.77;1.83;;;;;;;20.21;58.89;94085.69;4999409;28;20307;-71
2022/08/01 02:18:25;;;;;;;1.77;1.60;;;;;;;20.38;57.70;94087.78;5001135;28;20711;-70
2022/08/01 02:21:13;;;;;;;2.50;1.90;;;;;;;20.34;57.80;94087.63;5003622;28;20660;-70
2022/08/01 02:24:08;;;;;;;1.90;1.70;;;;;;;20.27;57.75;94085.91;5003748;28;20727;-70
2022/08/01 02:26:54;;;;;;;3.10;1.87;;;;;;;20.40;57.43;94090.72;5004245;28;20282;-71
2022/08/01 02:29:43;;;;;;;2.72;1.88;;;;;;;20.34;57.28;94081.94;5006216;28;20199;-70
2022/08/01 02:32:33;;;;;;;4.27;1.60;;;;;;;20.20;57.76;94090.63;4995507;28;20208;-71
2022/08/01 02:35:25;;;;;;;5.37;1.73;;;;;;;20.09;58.14;94090.91;4997661;28;20696;-71
2022/08/01 02:38:13;;;;;;;1.60;1.50;;;;;;;20.35;56.35;94089.09;5009394;28;20200;-70
2022/08/01 02:41:03;;;;;;;6.50;2.13;;;;;;;20.41;56.54;94089.31;5013644;28;20349;-70
2022/08/01 02:43:50;;;;;;;3.30;1.70;;;;;;;20.65;55.58;94089.47;5009036;28;20211;-70
2022/08/01 02:46:40;;;;;;;2.00;1.70;;;;;;;20.64;55.55;94096.56;5011671;28;20199;-71
2022/08/01 02:49:26;;;;;;;7.77;1.90;;;;;;;20.57;55.70;94097.72;5001452;28;20235;-70
2022/08/01 02:52:14;;;;;;;4.93;1.80;;;;;;;20.54;55.29;94099.78;5001856;28;20226;-70
2022/08/01 02:54:59;;;;;;;2.90;1.77;;;;;;;20.68;54.43;94098.81;4999246;28;20227;-68
2022/08/01 02:57:46;;;;;;;2.80;1.58;;;;;;;20.68;54.74;94098.81;5007254;28;20200;-70
2022/08/01 03:00:32;;;;;;;2.97;1.60;;;;;;;20.81;54.05;94103.56;5003733;28;20349;-69
2022/08/01 03:03:17;;;;;;;5.72;1.95;;;;;;;21.13;53.26;94101.88;5003897;28;20197;-59
2022/08/01 03:06:02;;;;;;;1.60;1.50;;;;;;;21.29;52.55;94105.28;5000854;28;20298;-70
2022/08/01 03:08:48;;;;;;;1.73;1.50;;;;;;;20.92;54.03;94096.88;5003282;28;20306;-71
2022/08/01 03:11:36;;;;;;;2.13;1.87;;;;;;;21.17;52.95;94104.16;5008943;28;21158;-70
2022/08/01 03:14:23;;;;;;;2.83;1.87;;;;;;;21.11;53.13;94106.78;5000444;28;20205;-70
2022/08/01 03:17:09;;;;;;;2.40;1.37;;;;;;;20.97;53.54;94098.47;5007280;28;20233;-70
2022/08/01 03:19:55;;;;;;;2.42;1.88;;;;;;;20.75;54.25;94100.50;5002753;28;20222;-66
2022/08/01 03:22:43;;;;;;;2.33;1.40;;;;;;;20.71;54.61;94098.25;5006410;28;20203;-70
2022/08/01 03:25:28;;;;;;;2.28;1.38;;;;;;;20.78;54.11;94104.91;5010429;28;20200;-63
2022/08/01 03:28:15;;;;;;;2.25;1.60;;;;;;;20.79;53.92;94100.66;5006542;28;20223;-65
2022/08/01 03:31:01;;;;;;;1.60;1.50;;;;;;;20.66;54.18;94098.75;5005092;28;20203;-71
2022/08/01 03:33:46;;;;;;;3.08;1.55;;;;;;;20.46;54.84;94102.31;5005370;28;20619;-70
2022/08/01 03:36:33;;;;;;;4.10;1.80;;;;;;;20.58;54.33;94111.31;5006265;28;20274;-71
2022/08/01 03:39:21;;;;;;;2.43;1.80;;;;;;;20.50;54.37;94105.31;5011650;28;20202;-60
2022/08/01 03:42:12;;;;;;;1.93;1.70;;;;;;;20.34;55.22;94115.34;5007069;28;20227;-70
2022/08/01 03:45:02;;;;;;;2.87;1.70;;;;;;;20.35;55.03;94117.56;4999444;28;20606;-62
2022/08/01 03:47:48;;;;;;;1.57;1.40;;;;;;;20.28;55.32;94117.94;5000660;28;20259;-71
2022/08/01 03:50:35;;;;;;;4.65;2.10;;;;;;;20.02;56.06;94120.50;5005152;28;20218;-66
2022/08/01 03:53:28;;;;;;;4.83;1.87;;;;;;;20.14;55.67;94126.66;5011325;28;20204;-71
2022/08/01 03:56:16;;;;;;;1.67;1.57;;;;;;;20.00;55.98;94124.00;4996035;28;20203;-71
2022/08/01 03:59:02;;;;;;;2.80;1.60;;;;;;;20.02;56.26;94117.66;4999575;28;20231;-71
2022/08/01 04:01:47;;;;;;;4.30;2.03;;;;;;;19.84;56.80;94122.63;5002700;28;20206;-71
2022/08/01 04:04:32;;;;;;;3.50;1.43;;;;;;;19.85;56.31;94126.94;5007071;28;20204;-71
2022/08/01 04:07:23;;;;;;;4.43;1.80;;;;;;;19.79;56.87;94122.47;5010604;28;20195;-71
2022/08/01 04:10:07;;;;;;;4.27;2.03;;;;;;;19.86;56.53;94125.56;5000906;28;20344;-67
2022/08/01 04:12:52;;;;;;;3.43;2.10;;;;;;;19.97;55.94;94124.56;5009401;28;20644;-65
2022/08/01 04:15:36;;;;;;;2.50;1.73;;;;;;;19.98;56.23;94117.50;5008639;28;20481;-70
2022/08/01 04:18:20;;;;;;;2.70;1.83;;;;;;;20.25;54.78;94131.34;5011914;28;20327;-70
2022/08/01 04:21:04;;;;;;;2.80;1.57;;;;;;;20.26;55.06;94132.81;5006934;28;20203;-70
2022/08/01 04:23:51;;;;;;;2.23;1.67;;;;;;;20.06;56.01;94137.72;5004656;28;20214;-71
2022/08/01 04:26:38;;;;;;;3.23;1.93;;;;;;;20.54;54.27;94145.34;5007768;28;20204;-67
2022/08/01 04:29:24;;;;;;;4.17;1.60;;;;;;;21.61;52.15;94148.44;5002967;28;20227;-71
2022/08/01 04:32:12;;;;;;;3.60;1.57;;;;;;;23.16;48.11;94146.09;4997934;28;20676;-71
2022/08/01 04:34:59;;;;;;;2.08;1.73;;;;;;;23.47;46.53;94150.53;4999433;28;20192;-71
2022/08/01 04:37:45;;;;;;;1.80;1.50;;;;;;;23.95;45.81;94144.59;5003674;28;20196;-71
2022/08/01 04:40:31;;;;;;;1.75;1.65;;;;;;;23.68;46.75;94151.81;5003182;28;20208;-71
2022/08/01 04:43:16;;;;;;;2.13;1.58;;;;;;;23.32;47.09;94151.56;5005623;28;20316;-71
2022/08/01 04:46:03;;;;;;;3.05;1.70;;;;;;;22.11;50.00;94146.53;4992863;28;20192;-71
2022/08/01 04:48:48;;;;;;;2.80;1.60;;;;;;;21.96;49.26;94144.63;5005663;28;20573;-69
2022/08/01 04:51:33;;;;;;;2.47;1.90;;;;;;;22.03;49.93;94149.16;5004205;28;20632;-71
2022/08/01 04:54:17;;;;;;;1.65;1.50;;;;;;;21.90;50.66;94157.94;5002149;28;20207;-67
2022/08/01 04:57:03;;;;;;;2.42;1.70;;;;;;;21.97;50.05;94151.06;5006822;28;20688;-69
2022/08/01 04:59:49;;;;;;;2.75;1.60;;;;;;;22.09;49.72;94152.19;5008390;28;20203;-68
2022/08/01 05:02:33;;;;;;;2.42;1.90;;;;;;;22.15;50.06;94146.69;5003025;28;20207;-70
2022/08/01 05:05:17;;;;;;;2.70;1.80;;;;;;;22.08;50.54;94158.56;5009116;28;20221;-71
2022/08/01 05:08:02;;;;;;;4.65;1.88;;;;;;;22.10;50.35;94162.19;5002681;28;20312;-71
2022/08/01 05:10:46;;;;;;;2.92;1.73;;;;;;;22.14;49.65;94158.75;4996326;28;20583;-70
2022/08/01 05:13:30;;;;;;;1.77;1.52;;;;;;;22.08;50.42;94155.72;5006095;28;20286;-71
2022/08/01 05:16:14;;;;;;;1.67;1.58;;;;;;;21.95;50.72;94160.28;5002857;28;20224;-70
2022/08/01 05:18:58;;;;;;;5.43;1.80;;;;;;;21.73;52.10;94163.09;5009313;28;20274;-71
2022/08/01 05:21:43;;;;;;;4.50;1.95;;;;;;;22.19;50.25;94166.78;5004468;28;20732;-71
2022/08/01 05:24:28;;;;;;;3.67;2.13;;;;;;;21.95;50.72;94160.28;5006294;28;20699;-70
2022/08/01 05:27:15;;;;;;;2.00;1.70;;;;;;;21.51;52.40;94165.22;5007339;28;20297;-71
2022/08/01 05:29:59;;;;;;;3.13;1.90;;;;;;;21.26;53.73;94165.75;4998312;28;20215;-66
2022/08/01 05:32:44;;;;;;;6.90;1.80;;;;;;;21.51;53.14;94164.47;5006105;28;20633;-66
2022/08/01 05:35:28;;;;;;;4.20;1.87;;;;;;;21.30;53.72;94169.47;5006390;28;20196;-71
2022/08/01 05:38:12;;;;;;;2.50;2.13;;;;;;;21.42;53.30;94159.91;4996338;28;20196;-71
2022/08/01 05:40:56;;;;;;;2.28;2.08;;;;;;;21.43;53.39;94169.88;5001273;28;20191;-70
2022/08/01 05:43:41;;;;;;;5.63;2.67;;;;;;;21.16;54.87;94166.13;4998632;28;20230;-71
2022/08/01 05:46:25;;;;;;;4.35;1.70;;;;;;;21.09;54.65;94172.97;5006029;28;20236;-70
2022/08/01 05:49:10;;;;;;;2.45;2.00;;;;;;;21.06;54.81;94162.88;4997243;28;20227;-71
2022/08/01 05:51:54;;;;;;;3.13;2.10;;;;;;;21.21;54.35;94167.72;5003964;28;20456;-71
2022/08/01 05:54:38;;;;;;;4.45;2.08;;;;;;;21.54;55.03;94169.56;5005679;28;20199;-71
2022/08/01 05:57:22;;;;;;;1.98;1.70;;;;;;;21.91;53.33;94160.13;5009080;28;20199;-71
2022/08/01 06:00:07;;;;;;;4.25;2.10;;;;;;;22.75;51.94;94172.81;4992928;28;20258;-71
2022/08/01 06:02:55;;;;;;;2.40;1.92;;;;;;;22.85;50.41;94175.94;5005792;28;20200;-71
2022/08/01 06:05:40;;;;;;;2.92;1.92;;;;;;;23.16;49.95;94177.56;5007377;28;20196;-71
2022/08/01 06:08:24;;;;;;;2.92;2.20;;;;;;;22.79;49.95;94172.91;4992096;28;20219;-70
2022/08/01 06:11:08;;;;;;;2.50;1.77;;;;;;;22.88;50.56;94162.47;5010368;28;20527;-71
2022/08/01 06:13:53;;;;;;;2.40;1.80;;;;;;;22.98;49.75;94177.75;5007809;28;20203;-71
2022/08/01 06:16:37;;;;;;;3.90;1.95;;;;;;;22.97;49.07;94173.44;4997178;28;20212;-70
2022/08/01 06:19:21;;;;;;;6.85;1.95;;;;;;;23.07;49.01;94178.00;5006844;28;20256;-70
2022/08/01 06:22:06;;;;;;;2.80;1.73;;;;;;;22.92;49.68;94191.88;4997374;28;20208;-70
2022/08/01 06:24:50;;;;;;;3.92;1.95;;;;;;;22.84;49.45;94185.91;5003291;28;20282;-70
2022/08/01 06:27:35;;;;;;;2.38;1.58;;;;;;;22.96;49.66;94185.53;5006517;28;20274;-64
2022/08/01 06:30:20;;;;;;;5.65;2.13;;;;;;;23.33;48.96;94181.59;5005552;28;20207;-70
2022/08/01 06:33:04;;;;;;;3.78;2.03;;;;;;;23.57;48.09;94185.16;4996872;28;20227;-70
2022/08/01 06:35:48;;;;;;;6.93;1.58;;;;;;;23.65;48.20;94193.94;5002622;28;20204;-71
2022/08/01 06:38:33;;;;;;;2.65;1.90;;;;;;;23.38;48.99;94188.91;5001721;28;20195;-69
2022/08/01 06:41:16;;;;;;;3.83;1.95;;;;;;;23.89;47.88;94184.53;5002338;28;20208;-70
2022/08/01 06:44:02;;;;;;;2.92;2.25;;;;;;;23.55;48.29;94178.63;4999901;28;20700;-66
2022/08/01 06:46:46;;;;;;;3.45;2.10;;;;;;;23.71;48.21;94185.50;5008464;28;20203;-70
2022/08/01 06:49:30;;;;;;;2.13;1.85;;;;;;;23.70;49.16;94186.91;4998429;28;20232;-70
2022/08/01 06:52:15;;;;;;;2.65;1.75;;;;;;;24.22;48.27;94183.97;5007767;28;20268;-71
2022/08/01 06:54:59;;;;;;;3.85;2.15;;;;;;;24.11;48.17;94185.81;5009641;28;20872;-60
2022/08/01 06:57:51;;;;;;;2.65;2.10;;;;;;;24.13;49.11;94188.03;4998150;28;20499;-60
2022/08/01 07:00:35;;;;;;;3.38;1.88;;;;;;;24.35;47.41;94194.31;5001169;28;20597;-71
2022/08/01 07:03:19;;;;;;;5.47;2.42;;;;;;;24.10;47.82;94195.81;5008820;28;20244;-70
2022/08/01 07:06:04;;;;;;;3.15;2.08;;;;;;;24.43;48.76;94188.78;5007913;28;20203;-71
2022/08/01 07:08:48;;;;;;;7.70;2.17;;;;;;;24.51;48.31;94191.09;5012355;28;20274;-70
2022/08/01 07:11:32;;;;;;;4.05;2.70;;;;;;;24.49;47.34;94191.78;5000532;28;20196;-69
2022/08/01 07:14:16;;;;;;;7.88;2.50;;;;;;;24.79;48.66;94193.88;5005063;28;20564;-70
2022/08/01 07:17:01;;;;;;;5.95;2.40;;;;;;;24.50;47.34;94190.34;4996175;28;20219;-71
2022/08/01 07:19:45;;;;;;;2.85;2.03;;;;;;;24.48;47.36;94193.19;5004608;28;20203;-71
2022/08/01 07:22:29;;;;;;;2.20;1.80;;;;;;;24.56;47.21;94184.75;5011152;28;20273;-71
2022/08/01 07:25:13;;;;;;;4.10;2.60;;;;;;;24.12;47.41;94186.56;4990407;28;20209;-72
2022/08/01 07:27:57;;;;;;;5.05;2.25;;;;;;;24.08;48.60;94187.16;5002715;28;20216;-69
2022/08/01 07:30:44;;;;;;;7.70;2.00;;;;;;;24.58;48.14;94179.09;5000401;28;20199;-70
2022/08/01 07:33:28;;;;;;;3.60;2.50;;;;;;;24.84;46.38;94181.09;5007530;28;20206;-61
2022/08/01 07:36:12;;;;;;;2.28;1.95;;;;;;;24.33;48.09;94182.78;5003986;28;20375;-69
2022/08/01 07:38:57;;;;;;;7.45;2.28;;;;;;;24.64;47.29;94177.75;4998685;28;20272;-70
2022/08/01 07:41:41;;;;;;;2.88;2.28;;;;;;;24.67;47.97;94177.13;5008770;28;20661;-70
2022/08/01 07:44:25;;;;;;;2.42;2.20;;;;;;;24.96;46.17;94181.38;5003111;28;20684;-69
2022/08/01 07:47:09;;;;;;;2.55;2.35;;;;;;;24.97;45.95;94174.22;5005890;28;20260;-69
2022/08/01 07:50:00;;;;;;;2.85;2.30;;;;;;;24.98;46.80;94172.81;5011582;28;20564;-69
2022/08/01 07:52:44;;;;;;;3.30;2.38;;;;;;;24.53;47.77;94177.53;4997407;28;20216;-69
2022/08/01 07:55:28;;;;;;;3.13;2.15;;;;;;;25.26;46.86;94178.41;5008124;28;20202;-70
2022/08/01 07:58:12;;;;;;;3.13;2.10;;;;;;;25.57;45.89;94189.09;5011735;28;20196;-61
2022/08/01 08:00:56;;;;;;;5.65;2.33;;;;;;;24.93;46.96;94179.88;5002381;28;20551;-69
2022/08/01 08:03:40;;;;;;;3.67;2.70;;;;;;;25.33;46.67;94177.84;5011330;28;20212;-61
2022/08/01 08:06:25;;;;;;;3.92;2.50;;;;;;;26.08;45.54;94179.25;4995912;28;20212;-70
2022/08/01 08:09:09;;;;;;;10.00;2.30;;;;;;;25.91;45.74;94174.66;5001032;28;20223;-70
2022/08/01 08:11:53;;;;;;;7.45;2.58;;;;;;;25.82;45.39;94178.06;5006316;28;20195;-71
2022/08/01 08:14:38;;;;;;;8.85;2.90;;;;;;;25.94;44.75;94179.00;5007452;28;20250;-70
2022/08/01 08:17:22;;;;;;;7.07;2.17;;;;;;;25.81;44.01;94174.47;5002374;28;20631;-70
2022/08/01 08:20:08;;;;;;;3.10;2.42;;;;;;;26.00;43.71;94173.38;5010191;28;20257;-71
2022/08/01 08:22:53;;;;;;;2.97;2.30;;;;;;;26.09;43.43;94172.09;5011053;28;20238;-71
2022/08/01 08:25:37;;;;;;;8.60;2.58;;;;;;;26.22;43.27;94170.16;5007914;28;20204;-71
2022/08/01 08:28:22;;;;;;;7.10;2.40;;;;;;;25.77;44.84;94183.00;5010807;28;20216;-60
2022/08/01 08:31:07;;;;;;;6.18;2.03;;;;;;;25.18;44.79;94178.97;5008084;28;20223;-60
2022/08/01 08:33:52;;;;;;;2.10;1.90;;;;;;;25.70;45.72;94181.44;4999834;28;20689;-71
2022/08/01 08:36:36;;;;;;;3.63;2.28;;;;;;;25.97;43.64;94174.78;5001216;28;20204;-60
2022/08/01 08:39:21;;;;;;;4.22;2.47;;;;;;;26.45;43.09;94171.28;5006784;28;20191;-70
2022/08/01 08:42:10;;;;;;;2.08;1.98;;;;;;;26.53;43.05;94177.16;5008690;28;20203;-67
2022/08/01 08:44:55;;;;;;;5.95;2.30;;;;;;;26.56;43.37;94175.75;5001403;28;20202;-70
2022/08/01 08:47:41;;;;;;;2.10;1.92;;;;;;;26.24;42.30;94170.22;4997589;28;20599;-70
2022/08/01 08:50:26;;;;;;;3.22;2.05;;;;;;;26.36;42.62;94166.81;5003786;28;20200;-71
2022/08/01 08:53:13;;;;;;;7.05;2.40;;;;;;;26.25;43.19;94174.53;5002312;28;20228;-70
2022/08/01 08:55:58;;;;;;;3.22;2.05;;;;;;;26.53;43.39;94171.41;5008263;28;20859;-60
2022/08/01 08:58:44;;;;;;;4.45;2.05;;;;;;;26.94;43.14;94172.72;5010575;28;20204;-70
2022/08/01 09:01:32;;;;;;;4.00;2.17;;;;;;;26.26;42.71;94166.66;4997451;28;20231;-70
2022/08/01 09:04:16;;;;;;;3.08;1.58;;;;;;;26.80;41.67;94164.59;5017037;28;20203;-64
2022/08/01 09:07:01;;;;;;;2.25;1.65;;;;;;;26.80;41.15;94176.09;5006895;28;20271;-69
2022/08/01 09:09:48;;;;;;;3.20;1.80;;;;;;;27.06;40.72;94166.41;4999385;28;20212;-60
2022/08/01 09:12:31;;;;;;;2.17;1.60;;;;;;;27.04;40.24;94172.13;5001968;28;20199;-71
2022/08/01 09:15:16;;;;;;;1.52;1.40;;;;;;;26.67;40.43;94174.47;4995861;28;20212;-70
2022/08/01 09:18:00;;;;;;;3.15;1.50;;;;;;;27.14;40.46;94180.91;5004967;28;20196;-63
2022/08/01 09:20:44;;;;;;;3.17;1.63;;;;;;;27.41;40.23;94182.66;4992474;28;20415;-64
2022/08/01 09:23:42;;;;;;;2.75;1.38;;;;;;;27.78;40.70;94178.06;5007511;28;20204;-71
2022/08/01 09:26:34;;;;;;;3.17;1.88;;;;;;;27.80;39.86;94180.25;5008859;28;20215;-71
2022/08/01 09:29:23;;;;;;;1.70;1.55;;;;;;;27.16;40.26;94180.91;5001931;28;20228;-70
2022/08/01 09:32:07;;;;;;;6.75;1.80;;;;;;;27.03;40.14;94170.69;5005517;28;20207;-70
2022/08/01 09:34:51;;;;;;;1.70;1.52;;;;;;;26.73;41.42;94177.44;4999799;28;20283;-71
2022/08/01 09:37:35;;;;;;;2.10;1.90;;;;;;;26.85;42.06;94177.59;5008780;28;20199;-70
2022/08/01 09:40:19;;;;;;;2.28;1.65;;;;;;;27.12;42.49;94164.34;5010268;28;20196;-70
2022/08/01 09:43:12;;;;;;;4.15;1.48;;;;;;;26.92;42.47;94170.53;5004631;28;20273;-60
2022/08/01 09:45:58;;;;;;;3.22;1.42;;;;;;;27.94;40.23;94166.75;4997912;28;20196;-71
2022/08/01 09:48:59;;;;;;;3.13;1.60;;;;;;;27.78;38.94;94167.28;5007714;28;20219;-70
2022/08/01 09:51:43;;;;;;;2.20;1.65;;;;;;;28.61;39.45;94163.72;5005009;28;20671;-71
2022/08/01 09:54:33;;;;;;;2.00;1.70;;;;;;;28.02;39.50;94166.09;5002343;28;20200;-70
2022/08/01 09:57:19;;;;;;;2.28;1.40;;;;;;;28.25;38.89;94167.03;5007734;28;20208;-71
2022/08/01 10:00:03;;;;;;;1.85;1.52;;;;;;;28.02;38.47;94161.03;5007554;28;20641;-70
2022/08/01 10:02:56;;;;;;;3.40;1.67;;;;;;;28.02;40.03;94160.34;4998421;28;20207;-68
2022/08/01 10:05:42;;;;;;;5.07;2.20;;;;;;;28.28;38.73;94169.22;5007755;28;20215;-62
2022/08/01 10:08:27;;;;;;;1.55;1.27;;;;;;;27.45;39.57;94153.97;5008346;28;20224;-66
2022/08/01 10:11:11;;;;;;;1.55;1.45;;;;;;;27.86;39.95;94160.16;5004002;28;20200;-63
2022/08/01 10:13:58;;;;;;;1.63;1.35;;;;;;;28.80;38.68;94153.78;5002650;28;20548;-70
2022/08/01 10:16:42;;;;;;;4.93;1.45;;;;;;;28.11;38.95;94150.31;5001671;28;20987;-70
2022/08/01 10:19:29;;;;;;;1.55;1.45;;;;;;;27.99;38.71;94155.97;5002299;28;20200;-71
2022/08/01 10:22:16;;;;;;;1.65;1.55;;;;;;;27.99;37.89;94144.44;5007234;28;20604;-59
2022/08/01 10:25:04;;;;;;;2.67;1.48;;;;;;;27.53;38.81;94142.53;5005356;28;20193;-70
2022/08/01 10:27:51;;;;;;;3.28;1.50;;;;;;;27.91;39.32;94139.34;5008582;28;20224;-60
2022/08/01 10:30:37;;;;;;;3.92;1.85;;;;;;;27.79;38.96;94136.34;5002836;28;20206;-62
2022/08/01 10:33:22;;;;;;;1.75;1.48;;;;;;;27.94;38.99;94142.97;5005765;28;20195;-62
2022/08/01 10:36:06;;;;;;;2.63;1.33;;;;;;;27.74;38.41;94141.34;4989840;28;20212;-70
2022/08/01 10:38:51;;;;;;;1.67;1.50;;;;;;;28.33;38.45;94141.19;4998087;28;20271;-65
2022/08/01 10:41:36;;;;;;;5.80;1.88;;;;;;;28.62;37.87;94139.22;5007173;28;20622;-71
2022/08/01 10:44:20;;;;;;;3.63;1.60;;;;;;;28.72;37.60;94133.50;4994684;28;20207;-61
2022/08/01 10:47:13;;;;;;;7.10;1.50;;;;;;;28.86;36.73;94130.75;5008785;28;20533;-61
2022/08/01 10:50:13;;;;;;;1.30;1.20;;;;;;;28.25;36.98;94118.78;4998516;28;20212;-68
2022/08/01 10:53:17;;;;;;;3.92;1.50;;;;;;;28.48;37.92;94117.50;5007614;28;20195;-72
2022/08/01 10:56:03;;;;;;;1.55;1.00;;;;;;;28.68;36.81;94127.72;5004333;28;20286;-65
2022/08/01 10:58:49;;;;;;;0.90;0.90;;;;;;;28.83;35.70;94130.00;5011562;28;20295;-59
2022/08/01 11:01:33;;;;;;;2.35;1.50;;;;;;;28.34;37.21;94120.28;5003863;28;20253;-68
2022/08/01 11:04:18;;;;;;;1.48;1.20;;;;;;;28.60;36.58;94127.66;5009874;28;20282;-66
2022/08/01 11:07:07;;;;;;;1.77;1.25;;;;;;;29.04;36.96;94116.41;5002134;28;20613;-60
2022/08/01 11:10:08;;;;;;;1.50;1.15;;;;;;;28.93;36.51;94112.03;5000453;28;20207;-59
2022/08/01 11:12:53;;;;;;;1.90;1.20;;;;;;;28.85;36.06;94114.84;4999570;28;20225;-71
2022/08/01 11:15:39;;;;;;;1.92;1.30;;;;;;;29.27;36.52;94115.06;4999880;28;20207;-59
2022/08/01 11:18:32;;;;;;;2.67;1.35;;;;;;;29.41;37.68;94111.53;5006336;28;20195;-70
2022/08/01 11:21:18;;;;;;;2.08;1.30;;;;;;;29.34;36.55;94107.88;4994858;28;20208;-59
2022/08/01 11:24:02;;;;;;;2.85;1.45;;;;;;;29.38;36.58;94115.13;5001127;28;20221;-59
2022/08/01 11:27:25;;;;;;;3.08;1.30;;;;;;;29.72;34.07;94103.66;5007456;28;20214;-70
2022/08/01 11:30:09;;;;;;;5.65;1.35;;;;;;;29.78;34.40;94100.78;5004572;28;20781;-61
2022/08/01 11:32:56;;;;;;;1.30;1.17;;;;;;;29.68;34.10;94107.28;5008111;28;20223;-70
2022/08/01 11:36:15;;;;;;;5.20;1.48;;;;;;;28.93;35.92;94109.13;5003802;28;20200;-71
2022/08/01 11:38:59;;;;;;;1.38;1.10;;;;;;;29.09;34.90;94100.53;5002075;28;20196;-71
2022/08/01 11:41:45;;;;;;;1.70;1.17;;;;;;;28.43;35.81;94098.72;5008987;28;20208;-69
2022/08/01 11:44:48;;;;;;;1.20;1.10;;;;;;;28.83;35.65;94094.66;4993376;28;20413;-60
2022/08/01 11:47:47;;;;;;;1.95;1.08;;;;;;;29.26;35.10;94099.16;5003587;28;20253;-67
2022/08/01 11:50:34;;;;;;;6.72;1.30;;;;;;;29.34;34.40;94090.56;5008575;28;20199;-66
2022/08/01 11:53:19;;;;;;;1.20;1.10;;;;;;;29.85;34.70;94087.78;5012608;28;20529;-62
2022/08/01 11:56:03;;;;;;;2.83;1.23;;;;;;;29.28;35.00;94096.28;5001876;28;20195;-70
2022/08/01 11:58:50;;;;;;;1.80;1.45;;;;;;;30.30;33.48;94094.34;5009541;28;20219;-71
2022/08/01 12:01:34;;;;;;;1.65;1.05;;;;;;;30.78;33.87;94093.56;5008835;28;20687;-60
2022/08/01 12:04:19;;;;;;;2.80;1.10;;;;;;;30.42;34.12;94100.13;5004200;28;20676;-71
2022/08/01 12:07:16;;;;;;;3.80;1.27;;;;;;;30.62;31.98;94099.38;5005812;28;20211;-70
2022/08/01 12:10:07;;;;;;;3.85;1.13;;;;;;;30.93;34.37;94097.84;5003313;28;20215;-71
2022/08/01 12:13:00;;;;;;;3.30;1.00;;;;;;;30.58;33.34;94082.03;5004042;28;20513;-71
2022/08/01 12:15:45;;;;;;;2.65;0.80;;;;;;;30.74;32.37;94081.97;5006713;28;20628;-59
2022/08/01 12:18:38;;;;;;;1.30;0.90;;;;;;;30.25;33.92;94084.19;5007978;28;20204;-71
2022/08/01 12:21:23;;;;;;;1.98;0.80;;;;;;;29.51;34.02;94076.16;5005717;28;20228;-71
2022/08/01 12:24:07;;;;;;;7.40;1.45;;;;;;;30.37;32.38;94077.69;5006678;28;20680;-71
2022/08/01 12:26:51;;;;;;;2.35;1.10;;;;;;;29.83;32.26;94066.84;5006160;28;20196;-70
2022/08/01 12:29:45;;;;;;;1.65;1.15;;;;;;;29.21;34.31;94071.72;5005598;28;20220;-67
2022/08/01 12:32:35;;;;;;;3.58;0.95;;;;;;;29.37;33.49;94068.22;5000898;28;20280;-70
2022/08/01 12:35:29;;;;;;;1.20;0.90;;;;;;;30.21;34.54;94063.25;5004116;28;20208;-70
2022/08/01 12:38:16;;;;;;;0.80;0.75;;;;;;;29.77;33.66;94061.78;5003716;28;20200;-67
2022/08/01 12:41:01;;;;;;;4.68;1.20;;;;;;;30.57;32.29;94063.22;5010595;28;20203;-71
2022/08/01 12:43:46;;;;;;;5.18;1.75;;;;;;;30.69;32.90;94062.47;5010066;28;20283;-70
2022/08/01 12:46:30;;;;;;;1.60;0.90;;;;;;;30.00;33.36;94050.97;5003987;28;20671;-65
2022/08/01 12:49:15;;;;;;;4.38;1.40;;;;;;;29.80;32.52;94056.72;5002888;28;20231;-61
2022/08/01 12:52:00;;;;;;;1.20;1.10;;;;;;;30.33;33.13;94061.06;5004359;28;20208;-72
2022/08/01 12:55:08;;;;;;;7.95;1.42;;;;;;;30.22;32.03;94059.66;5003738;28;20672;-70
2022/08/01 12:58:09;;;;;;;2.65;1.10;;;;;;;30.50;30.87;94047.31;4996850;28;20200;-63
2022/08/01 13:01:03;;;;;;;2.35;0.90;;;;;;;30.26;31.19;94044.44;5007356;28;20211;-64
2022/08/01 13:04:00;;;;;;;2.90;1.20;;;;;;;30.63;32.26;94037.19;5004986;28;20523;-60
2022/08/01 13:06:45;;;;;;;4.50;1.33;;;;;;;30.58;32.92;94044.44;5001944;28;20271;-71